sensor_id;sensor_type;location;lat;lon;timestamp;temperature;humidity
16976;DHT22;8604;48.148;-1.786;2023-06-10T00:00:06;20.30;99.90
16976;DHT22;8604;48.148;-1.786;2023-06-10T00:02:43;20.30;99.90
16976;DHT22;8604;48.148;-1.786;2023-06-10T00:05:12;20.30;99.90
16976;DHT22;8604;48.148;-1.786;2023-06-10T00:07:40;20.30;99.90
16976;DHT22;8604;48.148;-1.786;2023-06-10T00:10:09;20.30;99.90
16976;DHT22;8604;48.148;-1.786;2023-06-10T00:12:38;20.30;99.90
16976;DHT22;8604;48.148;-1.786;2023-06-10T00:15:08;20.30;99.90
16976;DHT22;8604;48.148;-1.786;2023-06-10T00:17:37;20.20;99.90
16976;DHT22;8604;48.148;-1.786;2023-06-10T00:20:09;20.30;99.90
16976;DHT22;8604;48.148;-1.786;2023-06-10T00:22:39;20.20;99.90
16976;DHT22;8604;48.148;-1.786;2023-06-10T00:25:09;20.30;99.90
16976;DHT22;8604;48.148;-1.786;2023-06-10T00:27:38;20.20;99.90
16976;DHT22;8604;48.148;-1.786;2023-06-10T00:30:08;20.20;99.90
16976;DHT22;8604;48.148;-1.786;2023-06-10T00:32:37;20.30;99.90
16976;DHT22;8604;48.148;-1.786;2023-06-10T00:35:08;20.20;99.90
16976;DHT22;8604;48.148;-1.786;2023-06-10T00:37:37;20.20;99.90
16976;DHT22;8604;48.148;-1.786;2023-06-10T00:40:06;20.20;99.90
16976;DHT22;8604;48.148;-1.786;2023-06-10T00:42:36;20.20;99.90
16976;DHT22;8604;48.148;-1.786;2023-06-10T00:45:05;20.20;99.90
16976;DHT22;8604;48.148;-1.786;2023-06-10T00:47:36;20.20;99.90
16976;DHT22;8604;48.148;-1.786;2023-06-10T00:50:06;20.10;99.90
16976;DHT22;8604;48.148;-1.786;2023-06-10T00:52:36;20.10;99.90
16976;DHT22;8604;48.148;-1.786;2023-06-10T00:55:05;20.10;99.90
16976;DHT22;8604;48.148;-1.786;2023-06-10T00:57:36;20.10;99.90
16976;DHT22;8604;48.148;-1.786;2023-06-10T01:00:06;20.10;99.90
16976;DHT22;8604;48.148;-1.786;2023-06-10T01:02:36;20.00;99.90
16976;DHT22;8604;48.148;-1.786;2023-06-10T01:05:05;20.00;99.90
16976;DHT22;8604;48.148;-1.786;2023-06-10T01:07:40;20.00;99.90
16976;DHT22;8604;48.148;-1.786;2023-06-10T01:10:18;20.00;99.90
16976;DHT22;8604;48.148;-1.786;2023-06-10T01:12:55;20.00;99.90
16976;DHT22;8604;48.148;-1.786;2023-06-10T01:15:26;20.00;99.90
16976;DHT22;8604;48.148;-1.786;2023-06-10T01:17:56;20.00;99.90
16976;DHT22;8604;48.148;-1.786;2023-06-10T01:20:26;20.00;99.90
16976;DHT22;8604;48.148;-1.786;2023-06-10T01:22:58;20.00;99.90
16976;DHT22;8604;48.148;-1.786;2023-06-10T01:25:28;19.90;99.90
16976;DHT22;8604;48.148;-1.786;2023-06-10T01:28:02;19.90;99.90
16976;DHT22;8604;48.148;-1.786;2023-06-10T01:30:39;19.90;99.90
16976;DHT22;8604;48.148;-1.786;2023-06-10T01:33:11;19.90;99.90
16976;DHT22;8604;48.148;-1.786;2023-06-10T01:35:41;19.90;99.90
16976;DHT22;8604;48.148;-1.786;2023-06-10T01:38:12;19.90;99.90
16976;DHT22;8604;48.148;-1.786;2023-06-10T01:40:42;19.90;99.90
16976;DHT22;8604;48.148;-1.786;2023-06-10T01:43:11;19.90;99.90
16976;DHT22;8604;48.148;-1.786;2023-06-10T01:45:40;19.90;99.90
16976;DHT22;8604;48.148;-1.786;2023-06-10T01:48:08;19.90;99.90
16976;DHT22;8604;48.148;-1.786;2023-06-10T01:50:37;20.00;99.90
16976;DHT22;8604;48.148;-1.786;2023-06-10T01:53:05;20.00;99.90
16976;DHT22;8604;48.148;-1.786;2023-06-10T01:55:35;19.90;99.90
16976;DHT22;8604;48.148;-1.786;2023-06-10T01:58:03;20.00;99.90
16976;DHT22;8604;48.148;-1.786;2023-06-10T02:00:31;20.00;99.90
16976;DHT22;8604;48.148;-1.786;2023-06-10T02:03:01;20.00;99.90
16976;DHT22;8604;48.148;-1.786;2023-06-10T02:05:29;20.00;99.90
16976;DHT22;8604;48.148;-1.786;2023-06-10T02:07:58;19.90;99.90
16976;DHT22;8604;48.148;-1.786;2023-06-10T02:10:26;19.90;99.90
16976;DHT22;8604;48.148;-1.786;2023-06-10T02:12:58;19.90;99.90
16976;DHT22;8604;48.148;-1.786;2023-06-10T02:15:26;19.90;99.90
16976;DHT22;8604;48.148;-1.786;2023-06-10T02:17:55;19.90;99.90
16976;DHT22;8604;48.148;-1.786;2023-06-10T02:20:23;19.80;99.90
16976;DHT22;8604;48.148;-1.786;2023-06-10T02:22:52;19.80;99.90
16976;DHT22;8604;48.148;-1.786;2023-06-10T02:25:20;19.80;99.90
16976;DHT22;8604;48.148;-1.786;2023-06-10T02:27:50;19.80;99.90
16976;DHT22;8604;48.148;-1.786;2023-06-10T02:30:20;19.80;99.90
16976;DHT22;8604;48.148;-1.786;2023-06-10T02:32:48;19.80;99.90
16976;DHT22;8604;48.148;-1.786;2023-06-10T02:35:19;19.80;99.90
16976;DHT22;8604;48.148;-1.786;2023-06-10T02:37:47;19.80;99.90
16976;DHT22;8604;48.148;-1.786;2023-06-10T02:40:16;19.80;99.90
16976;DHT22;8604;48.148;-1.786;2023-06-10T02:42:45;19.70;99.90
16976;DHT22;8604;48.148;-1.786;2023-06-10T02:45:13;19.80;99.90
16976;DHT22;8604;48.148;-1.786;2023-06-10T02:47:44;19.80;99.90
16976;DHT22;8604;48.148;-1.786;2023-06-10T02:50:13;19.80;99.90
16976;DHT22;8604;48.148;-1.786;2023-06-10T02:53:00;19.70;99.90
16976;DHT22;8604;48.148;-1.786;2023-06-10T02:55:29;19.70;99.90
16976;DHT22;8604;48.148;-1.786;2023-06-10T02:58:03;19.70;99.90
16976;DHT22;8604;48.148;-1.786;2023-06-10T03:00:32;19.70;99.90
16976;DHT22;8604;48.148;-1.786;2023-06-10T03:03:03;19.70;99.90
16976;DHT22;8604;48.148;-1.786;2023-06-10T03:05:39;19.60;99.90
16976;DHT22;8604;48.148;-1.786;2023-06-10T03:08:08;19.60;99.90
16976;DHT22;8604;48.148;-1.786;2023-06-10T03:10:40;19.60;99.90
16976;DHT22;8604;48.148;-1.786;2023-06-10T03:13:11;19.60;99.90
16976;DHT22;8604;48.148;-1.786;2023-06-10T03:15:39;19.60;99.90
16976;DHT22;8604;48.148;-1.786;2023-06-10T03:18:12;19.60;99.90
16976;DHT22;8604;48.148;-1.786;2023-06-10T03:20:42;19.50;99.90
16976;DHT22;8604;48.148;-1.786;2023-06-10T03:23:11;19.60;99.90
16976;DHT22;8604;48.148;-1.786;2023-06-10T03:25:40;19.60;99.90
16976;DHT22;8604;48.148;-1.786;2023-06-10T03:28:12;19.60;99.90
16976;DHT22;8604;48.148;-1.786;2023-06-10T03:30:41;19.50;99.90
16976;DHT22;8604;48.148;-1.786;2023-06-10T03:33:11;19.50;99.90
16976;DHT22;8604;48.148;-1.786;2023-06-10T03:35:41;19.50;99.90
16976;DHT22;8604;48.148;-1.786;2023-06-10T03:38:11;19.50;99.90
16976;DHT22;8604;48.148;-1.786;2023-06-10T03:40:40;19.50;99.90
16976;DHT22;8604;48.148;-1.786;2023-06-10T03:43:08;19.40;99.90
16976;DHT22;8604;48.148;-1.786;2023-06-10T03:45:36;19.40;99.90
16976;DHT22;8604;48.148;-1.786;2023-06-10T03:48:05;19.40;99.90
16976;DHT22;8604;48.148;-1.786;2023-06-10T03:50:45;19.40;99.90
16976;DHT22;8604;48.148;-1.786;2023-06-10T03:53:14;19.40;99.90
16976;DHT22;8604;48.148;-1.786;2023-06-10T03:55:43;19.40;99.90
16976;DHT22;8604;48.148;-1.786;2023-06-10T03:58:15;19.40;99.90
16976;DHT22;8604;48.148;-1.786;2023-06-10T04:00:45;19.40;99.90
16976;DHT22;8604;48.148;-1.786;2023-06-10T04:03:14;19.40;99.90
16976;DHT22;8604;48.148;-1.786;2023-06-10T04:05:51;19.40;99.90
16976;DHT22;8604;48.148;-1.786;2023-06-10T04:08:19;19.40;99.90
16976;DHT22;8604;48.148;-1.786;2023-06-10T04:10:49;19.40;99.90
16976;DHT22;8604;48.148;-1.786;2023-06-10T04:13:17;19.40;99.90
16976;DHT22;8604;48.148;-1.786;2023-06-10T04:15:53;19.40;99.90
16976;DHT22;8604;48.148;-1.786;2023-06-10T04:18:22;19.40;99.90
16976;DHT22;8604;48.148;-1.786;2023-06-10T04:20:55;19.40;99.90
16976;DHT22;8604;48.148;-1.786;2023-06-10T04:23:24;19.40;99.90
16976;DHT22;8604;48.148;-1.786;2023-06-10T04:25:53;19.40;99.90
16976;DHT22;8604;48.148;-1.786;2023-06-10T04:28:23;19.40;99.90
16976;DHT22;8604;48.148;-1.786;2023-06-10T04:30:51;19.40;99.90
16976;DHT22;8604;48.148;-1.786;2023-06-10T04:33:20;19.40;99.90
16976;DHT22;8604;48.148;-1.786;2023-06-10T04:35:50;19.40;99.90
16976;DHT22;8604;48.148;-1.786;2023-06-10T04:38:23;19.40;99.90
16976;DHT22;8604;48.148;-1.786;2023-06-10T04:40:52;19.40;99.90
16976;DHT22;8604;48.148;-1.786;2023-06-10T04:43:22;19.50;99.90
16976;DHT22;8604;48.148;-1.786;2023-06-10T04:45:50;19.50;99.90
16976;DHT22;8604;48.148;-1.786;2023-06-10T04:48:19;19.40;99.90
16976;DHT22;8604;48.148;-1.786;2023-06-10T04:50:47;19.50;99.90
16976;DHT22;8604;48.148;-1.786;2023-06-10T04:53:16;19.50;99.90
16976;DHT22;8604;48.148;-1.786;2023-06-10T04:55:47;19.50;99.90
16976;DHT22;8604;48.148;-1.786;2023-06-10T04:58:16;19.50;99.90
16976;DHT22;8604;48.148;-1.786;2023-06-10T05:00:44;19.50;99.90
16976;DHT22;8604;48.148;-1.786;2023-06-10T05:03:12;19.50;99.90
16976;DHT22;8604;48.148;-1.786;2023-06-10T05:05:41;19.50;99.90
16976;DHT22;8604;48.148;-1.786;2023-06-10T05:08:10;19.50;99.90
16976;DHT22;8604;48.148;-1.786;2023-06-10T05:10:38;19.50;99.90
16976;DHT22;8604;48.148;-1.786;2023-06-10T05:13:08;19.50;99.90
16976;DHT22;8604;48.148;-1.786;2023-06-10T05:15:36;19.50;99.90
16976;DHT22;8604;48.148;-1.786;2023-06-10T05:18:05;19.50;99.90
16976;DHT22;8604;48.148;-1.786;2023-06-10T05:20:33;19.50;99.90
16976;DHT22;8604;48.148;-1.786;2023-06-10T05:23:01;19.60;99.90
16976;DHT22;8604;48.148;-1.786;2023-06-10T05:25:30;19.60;99.90
16976;DHT22;8604;48.148;-1.786;2023-06-10T05:28:01;19.60;99.90
16976;DHT22;8604;48.148;-1.786;2023-06-10T05:30:31;19.60;99.90
16976;DHT22;8604;48.148;-1.786;2023-06-10T05:32:59;19.60;99.90
16976;DHT22;8604;48.148;-1.786;2023-06-10T05:35:28;19.60;99.90
16976;DHT22;8604;48.148;-1.786;2023-06-10T05:37:56;19.70;99.90
16976;DHT22;8604;48.148;-1.786;2023-06-10T05:40:29;19.70;99.90
16976;DHT22;8604;48.148;-1.786;2023-06-10T05:42:58;19.70;99.90
16976;DHT22;8604;48.148;-1.786;2023-06-10T21:33:06;21.00;99.90
16976;DHT22;8604;48.148;-1.786;2023-06-10T21:35:34;21.00;99.90
16976;DHT22;8604;48.148;-1.786;2023-06-10T21:38:03;20.90;99.90
16976;DHT22;8604;48.148;-1.786;2023-06-10T21:40:32;20.90;99.90
16976;DHT22;8604;48.148;-1.786;2023-06-10T21:43:00;20.90;99.90
16976;DHT22;8604;48.148;-1.786;2023-06-10T21:45:28;20.90;99.90
16976;DHT22;8604;48.148;-1.786;2023-06-10T21:47:57;20.80;99.90
16976;DHT22;8604;48.148;-1.786;2023-06-10T21:50:27;20.80;99.90
16976;DHT22;8604;48.148;-1.786;2023-06-10T21:52:55;20.70;99.90
16976;DHT22;8604;48.148;-1.786;2023-06-10T21:55:27;20.70;99.90
16976;DHT22;8604;48.148;-1.786;2023-06-10T21:57:55;20.60;99.90
16976;DHT22;8604;48.148;-1.786;2023-06-10T22:00:24;20.50;99.90
16976;DHT22;8604;48.148;-1.786;2023-06-10T22:02:52;20.50;99.90
16976;DHT22;8604;48.148;-1.786;2023-06-10T22:05:21;20.40;99.90
16976;DHT22;8604;48.148;-1.786;2023-06-10T22:07:51;20.40;99.90
16976;DHT22;8604;48.148;-1.786;2023-06-10T22:10:21;20.40;99.90
16976;DHT22;8604;48.148;-1.786;2023-06-10T22:12:50;20.30;99.90
16976;DHT22;8604;48.148;-1.786;2023-06-10T22:15:18;20.30;99.90
16976;DHT22;8604;48.148;-1.786;2023-06-10T22:17:47;20.20;99.90
16976;DHT22;8604;48.148;-1.786;2023-06-10T22:20:15;20.20;99.90
16976;DHT22;8604;48.148;-1.786;2023-06-10T22:22:44;20.20;99.90
16976;DHT22;8604;48.148;-1.786;2023-06-10T22:25:14;20.20;99.90
16976;DHT22;8604;48.148;-1.786;2023-06-10T22:27:43;20.20;99.90
16976;DHT22;8604;48.148;-1.786;2023-06-10T22:30:12;20.10;99.90
16976;DHT22;8604;48.148;-1.786;2023-06-10T22:32:40;20.00;99.90
16976;DHT22;8604;48.148;-1.786;2023-06-10T22:35:10;20.00;99.90
16976;DHT22;8604;48.148;-1.786;2023-06-10T22:37:39;20.00;99.90
16976;DHT22;8604;48.148;-1.786;2023-06-10T22:40:08;20.00;99.90
16976;DHT22;8604;48.148;-1.786;2023-06-10T22:42:38;19.90;99.90
16976;DHT22;8604;48.148;-1.786;2023-06-10T22:45:07;19.90;99.90
16976;DHT22;8604;48.148;-1.786;2023-06-10T22:47:36;19.80;99.90
16976;DHT22;8604;48.148;-1.786;2023-06-10T22:50:05;19.80;99.90
16976;DHT22;8604;48.148;-1.786;2023-06-10T22:52:34;19.70;99.90
16976;DHT22;8604;48.148;-1.786;2023-06-10T22:55:02;19.80;99.90
16976;DHT22;8604;48.148;-1.786;2023-06-10T22:57:31;19.80;99.90
16976;DHT22;8604;48.148;-1.786;2023-06-10T23:00:01;19.80;99.90
16976;DHT22;8604;48.148;-1.786;2023-06-10T23:02:31;19.80;99.90
16976;DHT22;8604;48.148;-1.786;2023-06-10T23:05:00;19.80;99.90
16976;DHT22;8604;48.148;-1.786;2023-06-10T23:07:28;19.80;99.90
16976;DHT22;8604;48.148;-1.786;2023-06-10T23:09:57;19.70;99.90
16976;DHT22;8604;48.148;-1.786;2023-06-10T23:12:25;19.70;99.90
16976;DHT22;8604;48.148;-1.786;2023-06-10T23:14:54;19.70;99.90
16976;DHT22;8604;48.148;-1.786;2023-06-10T23:17:26;19.60;99.90
16976;DHT22;8604;48.148;-1.786;2023-06-10T23:19:56;19.60;99.90
16976;DHT22;8604;48.148;-1.786;2023-06-10T23:22:25;19.70;99.90
16976;DHT22;8604;48.148;-1.786;2023-06-10T23:24:58;19.60;99.90
16976;DHT22;8604;48.148;-1.786;2023-06-10T23:27:28;19.60;99.90
16976;DHT22;8604;48.148;-1.786;2023-06-10T23:29:56;19.60;99.90
16976;DHT22;8604;48.148;-1.786;2023-06-10T23:32:28;19.60;99.90
16976;DHT22;8604;48.148;-1.786;2023-06-10T23:34:58;19.60;99.90
16976;DHT22;8604;48.148;-1.786;2023-06-10T23:37:26;19.60;99.90
16976;DHT22;8604;48.148;-1.786;2023-06-10T23:39:55;19.60;99.90
16976;DHT22;8604;48.148;-1.786;2023-06-10T23:42:23;19.60;99.90
16976;DHT22;8604;48.148;-1.786;2023-06-10T23:44:52;19.60;99.90
16976;DHT22;8604;48.148;-1.786;2023-06-10T23:47:21;19.60;99.90
16976;DHT22;8604;48.148;-1.786;2023-06-10T23:49:51;19.60;99.90
16976;DHT22;8604;48.148;-1.786;2023-06-10T23:52:20;19.60;99.90
16976;DHT22;8604;48.148;-1.786;2023-06-10T23:54:49;19.60;99.90
16976;DHT22;8604;48.148;-1.786;2023-06-10T23:57:17;19.60;99.90
16976;DHT22;8604;48.148;-1.786;2023-06-10T23:59:46;19.50;99.90
